Insider trading report: insider purchases reported on July 3, 2019 , Part 2

This page lists insider stock purchases reported on July 3, 2019. To query the history of insider trading activities (stock purchases, sales, and option exercises) for a particular company, click on the Issuer column. For the most current insider trading transactions see Realtime Insider Trading Report. For insider stock sales reported on this day see insider trading report: insider sales reported on July 3, 2019.

 1   2 

Insider stock purchases reported on July 3, 2019 , Part 2 (This report is sorted by stock symbol).
Sort by
Symbol
Company Insider Name   Shares     Price   Sort by
Value($)
Trade
Date
HY Hyster-yale Materials Handling, Inc. 1st time Rankin Roger F (Other) 505 53.99 27,264 2019-07-02
   Rankin Clara L T (Other) 542 53.99 29,262 2019-07-02
   Rankin Alfred M Et Al (Chairman) 1,443 53.99 77,907 2019-07-02
   Rankin Alfred M Et Al (Chairman) 3,155 53.99 170,338 2019-07-02
   Butler John C Jr (Other) 165 53.99 8,908 2019-07-02
   Butler Helen Rankin (Other) 165 53.99 8,908 2019-07-02
   Rankin Corbin (Other) 184 53.99 9,934 2019-07-02
   Rankin Alison A (Other) 569 53.99 30,720 2019-07-02
   Rankin Alison A (Other) 505 53.99 27,264 2019-07-02
   Rankin Elizabeth B (Other) 6 53.99 323 2019-07-02
   Rankin Victoire G (Other) 1,443 53.99 77,907 2019-07-02
   Rankin Victoire G (Other) 3,155 53.99 170,338 2019-07-02
   Rankin Matthew M (Other) 6 53.99 323 2019-07-02
   Rankin Chloe O (Other) 323 53.99 17,438 2019-07-02
   Rankin Claiborne R (Director) 323 53.99 17,438 2019-07-02
   Rankin Claiborne R Jr (Other) 3 53.99 161 2019-07-02
   Rankin James T (Other) 10 53.99 539 2019-07-02
   Rankin Thomas T (Other) 184 53.99 9,934 2019-07-02
   Seelbach Chloe R (Other) 8 53.99 431 2019-07-02
   Seelbach Chloe R (Other) 8 53.99 431 2019-07-02
   Seelbach Scott W (Other) 8 53.99 431 2019-07-02
   Williams David B (Other) 165 53.99 8,908 2019-07-02
   Williams Clara R (Other) 165 53.99 8,908 2019-07-02
   Rankin Bruce T (Other) 632 53.99 34,121 2019-07-02
   Rankin Thomas Parker (Other) 5 53.99 269 2019-07-02
   Rankin Julia L (Other) 6 53.99 323 2019-07-02
   Rankin Lynne T (Other) 10 53.99 539 2019-07-02
   Kuipers Jacob A (Other) 6 53.99 323 2019-07-02
   Butler Clara R (Other) 2 53.99 107 2019-07-02
   Clara Rankin Butler 2002 Trust Dtd 11/5/2002 (Other) 2 53.99 107 2019-07-02
   Matthew M Rankin & James T. Rankin Co-trustees For Mary M. Rankin U/a/d May 10, 2007 (Other) 2 53.99 107 2019-07-02
   Matthew M Rankin & James T. Rankin Co-trustees For Mary M. Rankin U/a/d May 10, 2007 (Other) 2 53.99 107 2019-07-02
   Griffin Bedwell Butler 2002 Trust Dtd 11/5/2002 (Other) 2 53.99 107 2019-07-02
   Matthew M. Rankin & James T. Rankin Co-trustees For William Alexander Rankin U/a/d May 10, 2007 (Other) 2 53.99 107 2019-07-02
   Rankin Mary M (Other) 2 53.99 107 2019-07-02
   Alison A. Rankin, As Trustee Fbo Elisabeth M. Rankin Under Irrevocable Trust, Dated December 18, 1997, With Roger Rankin, Grantor (Other) 1 53.99 53 2019-07-02
   Rankin Elisabeth M (Other) 1 53.99 53 2019-07-02
   Rankin A Farnham (Other) 1 53.99 53 2019-07-02
   David Bh Williams, Trustee Uad The Helen Charles Williams 2004 Trust (Other) 2 53.99 107 2019-07-02
   David Bh Williams, Trustee Uad The Margo Janison Victoire Williams 2004 Trust (Other) 2 53.99 107 2019-07-02
   Trust Dated 9/28/2000 Between Alfred M. Rankin, Jr., As Trustee & Bruce T. Rankin, For The Benefit Of Bruce T. Rankin (Other) 632 53.99 34,121 2019-07-02
   Trust Dated 1/1/1977, Pnc Bank & Alfred M. Rankin, Jr. As Co-trustees & Clara L.t. Rankin, Fbo Clara L.t. Rankin (Other) 542 53.99 29,262 2019-07-02
   Trust Dated December 21, 2004, Between Claiborne R. Rankin, As Trustee, & Julia L. Rankin, Creating A Trust Fbo Julia L. Rankin (Other) 1 53.99 53 2019-07-02
   Rankin William A (Other) 2 53.99 107 2019-07-02
   Rankin Margaret Pollard (Other) 2 53.99 107 2019-07-02
   Williams Helen Charles (Other) 2 53.99 107 2019-07-02
   Williams Margo J.v. (Other) 2 53.99 107 2019-07-02
   Seelbach Thomas Wilson (Other) 2 53.99 107 2019-07-02
   Chloe R. Seelbach, Trustee Under Claiborne Rankin Trust For Children Of Chloe R. Seelbach Dtd 12/21/04 Fbo Thomas Wilson Seelbach (Other) 2 53.99 107 2019-07-02
   Chloe R. Seelbach, Trustee Uad 2/2/05 The Taplin Elizabeth Seelbach Trust (Other) 2 53.99 107 2019-07-02
   Seelbach Taplin E (Other) 2 53.99 107 2019-07-02
   Chloe R. Seelbach, Trustee Under Claiborne Rankin Trust For Children Of Chloe R. Seelbach Dtd 12/21/04 Fbo Isabelle Scott Seelbach (Other) 2 53.99 107 2019-07-02
   Seelbach Isabelle (Other) 2 53.99 107 2019-07-02
   Butler Griffin B (Other) 2 53.99 107 2019-07-02
   Btr 2012 Gst Trust For Julia R. Kuipers (Other) 6 53.99 323 2019-07-02
   Btr 2012 Gst Trust For Anne F. Rankin (Other) 95 53.99 5,129 2019-07-02
   Btr 2012 Gst Trust For Elisabeth M. Rankin (Other) 95 53.99 5,129 2019-07-02
   Btr 2012 Gst Trust For Helen R. Butler (Other) 101 53.99 5,452 2019-07-02
   Btr 2012 Gst Trust For Clara R. Williams (Other) 101 53.99 5,452 2019-07-02
   Anne Farnham Rankin Trust 8/15/2012 (Other) 1 53.99 53 2019-07-02
   2013 Trust Fbo Evelyn R. Kuipers (Other) 2 53.99 107 2019-07-02
   Kuipers Evelyn R (Other) 2 53.99 107 2019-07-02
   Claiborne Rankin Trust For Children Of Claiborne Rankin Jr Fbo Claiborne Read Rankin Iii (Other) 1 53.99 53 2019-07-02
   Vested Trust For James T. Rankin, Jr. (Other) 2 53.99 107 2019-07-02
   Vested Trust For Margaret Pollard Rankin (Other) 2 53.99 107 2019-07-02
   Trust For Children Of Julia Kuipers Fbo Matilda Alan Kuipers (Other) 2 53.99 107 2019-07-02
   Rankin James T. Jr. (Other) 2 53.99 107 2019-07-02
   Kuipers Matilda Alan (Other) 2 53.99 107 2019-07-02
   Rankin Claiborne Read Iii (Other) 1 53.99 53 2019-07-02
   Rankin Lauran (Other) 3 53.99 161 2019-07-02
ISBA Isabella Bank Corp 1st time Wheeler Peggy (Chief Operations Officer) 13 22.09 287 2019-07-01
   Schwind Jerome E (President) 18 22.09 397 2019-07-01
JUVF Juniata Valley Financial Corp 1st time Kelsey Gary E (Director) 100 20.40 2,039 2019-06-21
   Kelsey Gary E (Director) 600 20.35 12,210 2019-06-21
   Kelsey Gary E (Director) 100 20.34 2,034 2019-06-21
   Kelsey Gary E (Director) 1,419 20.75 29,444 2019-06-21
N/A Golub Capital Bdc 3, Inc. 1st time Strs Ohio (10% Owner) 333,333 15.00 4,999,995 2019-07-02
NYMX Nymox Pharmaceutical Corp 1st time Robinson James George (Director) 8,000 1.54 12,352 2019-07-03
OPK Opko Health, Inc. 1st time Frost Nevada Investments Trust (10% Owner) 50,000 2.42 120,900 2019-07-02
RIV Rivernorth Opportunities Fund, Inc. 1st time Swanson David (Director) 580 17.20 9,973 2019-07-02
TPL Texas Pacific Land Trust 1st time Horizon Kinetics Asset Management Llc (10% Owner) 50 811.04 40,552 2019-07-02
VBFC Village Bank & Trust Financial Corp. 1st time Lehman Kenneth R 114 33.07 3,769 2019-07-02
   Lehman Kenneth R 1,376 33.06 45,490 2019-07-01

 1   2